createdAt,value
2018-11-26T00:01:17.008Z,101240.66
2018-11-26T00:04:02.194Z,101251.10
2018-11-26T00:06:32.703Z,101258.36
2018-11-26T00:09:25.248Z,101266.94
2018-11-26T00:12:13.980Z,101266.59
2018-11-26T00:15:03.629Z,101264.58
2018-11-26T00:17:35.719Z,101272.75
2018-11-26T00:20:09.517Z,101274.86
2018-11-26T00:22:41.524Z,101268.57
2018-11-26T00:25:10.657Z,101275.84
2018-11-26T00:27:39.794Z,101281.20
2018-11-26T00:30:09.433Z,101276.59
2018-11-26T00:32:38.466Z,101268.36
2018-11-26T00:35:07.706Z,101268.81
2018-11-26T00:37:37.653Z,101265.73
2018-11-26T00:40:08.921Z,101264.00
2018-11-26T00:42:38.053Z,101260.31
2018-11-26T00:45:08.865Z,101268.83
2018-11-26T00:47:38.193Z,101259.61
2018-11-26T00:50:09.526Z,101256.85
2018-11-26T00:52:39.189Z,101254.58
2018-11-26T00:55:09.781Z,101250.54
2018-11-26T00:57:38.884Z,101254.00
2018-11-26T01:00:11.545Z,101251.94
2018-11-26T01:02:40.810Z,101249.09
2018-11-26T01:05:13.874Z,101246.40
2018-11-26T01:07:42.946Z,101232.72
2018-11-26T01:10:13.292Z,101235.52
2018-11-26T01:12:42.691Z,101238.37
2018-11-26T01:15:11.843Z,101240.16
2018-11-26T01:17:41.682Z,101236.48
2018-11-26T01:20:10.705Z,101234.55
2018-11-26T01:22:40.662Z,101239.74
2018-11-26T01:25:09.788Z,101243.06
2018-11-26T01:27:38.811Z,101240.48
2018-11-26T01:30:10.156Z,101244.73
2018-11-26T01:32:39.564Z,101242.51
2018-11-26T01:35:09.037Z,101243.72
2018-11-26T01:37:39.496Z,101245.35
2018-11-26T01:40:14.489Z,101246.47
2018-11-26T01:42:43.642Z,101244.61
2018-11-26T01:45:12.717Z,101250.59
2018-11-26T01:47:41.757Z,101246.05
2018-11-26T01:50:11.361Z,101253.58
2018-11-26T01:52:40.408Z,101256.59
2018-11-26T01:55:10.681Z,101256.59
2018-11-26T01:57:40.010Z,101252.55
2018-11-26T02:00:19.649Z,101258.45
2018-11-26T02:02:49.516Z,101254.64
2018-11-26T02:05:18.898Z,101263.78
2018-11-26T02:07:48.009Z,101268.98
2018-11-26T02:10:18.104Z,101266.46
2018-11-26T02:12:48.538Z,101266.66
2018-11-26T02:15:26.927Z,101277.75
2018-11-26T02:17:56.186Z,101276.78
2018-11-26T02:20:25.554Z,101278.64
2018-11-26T02:22:54.966Z,101274.31
2018-11-26T02:25:24.182Z,101278.13
2018-11-26T02:27:53.400Z,101282.62
2018-11-26T02:30:22.953Z,101291.67
2018-11-26T02:32:51.936Z,101294.27
2018-11-26T02:35:20.940Z,101292.60
2018-11-26T02:37:50.961Z,101294.17
2018-11-26T02:40:31.021Z,101304.95
2018-11-26T02:43:00.114Z,101300.75
2018-11-26T02:45:29.489Z,101300.81
2018-11-26T02:47:58.576Z,101294.95
2018-11-26T02:50:27.742Z,101294.34
2018-11-26T02:52:56.768Z,101289.41
2018-11-26T02:55:25.764Z,101296.14
2018-11-26T02:57:54.794Z,101299.22
2018-11-26T03:00:23.855Z,101302.01
2018-11-26T03:02:52.885Z,101301.40
2018-11-26T03:05:29.725Z,101304.25
2018-11-26T03:07:58.742Z,101302.64
2018-11-26T03:10:27.870Z,101310.67
2018-11-26T03:12:56.962Z,101303.23
2018-11-26T03:15:25.995Z,101304.18
2018-11-26T03:17:55.038Z,101297.41
2018-11-26T03:20:24.107Z,101292.91
2018-11-26T03:22:53.122Z,101290.02
2018-11-26T03:25:22.188Z,101286.87
2018-11-26T03:27:51.217Z,101281.31
2018-11-26T03:30:21.552Z,101286.38
2018-11-26T03:32:50.882Z,101281.31
2018-11-26T03:35:20.011Z,101278.02
2018-11-26T03:37:49.118Z,101274.71
2018-11-26T03:40:18.127Z,101279.03
2018-11-26T03:42:47.520Z,101276.78
2018-11-26T03:45:18.551Z,101274.71
2018-11-26T03:47:47.652Z,101277.19
2018-11-26T03:50:16.718Z,101275.94
2018-11-26T03:52:46.332Z,101288.50
2018-11-26T03:55:15.647Z,101278.14
2018-11-26T03:57:44.673Z,101288.48
2018-11-26T04:00:17.032Z,101291.34
2018-11-26T04:02:46.187Z,101297.73
2018-11-26T04:05:15.215Z,101301.42
2018-11-26T04:07:44.411Z,101304.69
2018-11-26T04:10:14.314Z,101308.09
2018-11-26T04:12:43.450Z,101309.55
2018-11-26T04:15:13.813Z,101314.99
2018-11-26T04:17:42.915Z,101308.59
2018-11-26T04:20:12.034Z,101313.97
2018-11-26T04:22:41.066Z,101316.95
2018-11-26T04:25:10.420Z,101322.33
2018-11-26T04:27:39.456Z,101327.32
2018-11-26T04:30:10.538Z,101319.98
2018-11-26T04:32:40.219Z,101325.48
2018-11-26T04:35:09.388Z,101319.42
2018-11-26T04:37:38.410Z,101325.83
2018-11-26T04:40:09.553Z,101328.78
2018-11-26T04:42:38.635Z,101327.48
2018-11-26T04:45:09.435Z,101336.47
2018-11-26T04:47:38.824Z,101331.42
2018-11-26T04:50:11.151Z,101320.95
2018-11-26T04:52:40.218Z,101326.26
2018-11-26T04:55:10.821Z,101330.11
2018-11-26T04:57:42.577Z,101331.80
2018-11-26T05:00:16.513Z,101333.03
2018-11-26T05:02:45.677Z,101327.16
2018-11-26T05:05:14.781Z,101326.97
2018-11-26T05:07:43.866Z,101325.80
2018-11-26T05:10:14.233Z,101322.28
2018-11-26T05:12:43.268Z,101326.20
2018-11-26T05:15:13.344Z,101325.91
2018-11-26T05:17:42.489Z,101324.45
2018-11-26T05:20:13.539Z,101327.42
2018-11-26T05:22:42.617Z,101327.27
2018-11-26T05:25:12.304Z,101337.88
2018-11-26T05:27:41.351Z,101333.33
2018-11-26T05:30:11.903Z,101339.94
2018-11-26T05:32:40.978Z,101343.13
2018-11-26T05:35:11.221Z,101352.20
2018-11-26T05:37:40.316Z,101358.70
2018-11-26T05:40:13.205Z,101346.39
2018-11-26T05:42:43.045Z,101349.84
2018-11-26T05:45:14.249Z,101353.95
2018-11-26T05:47:43.332Z,101361.30
2018-11-26T05:50:15.008Z,101361.00
2018-11-26T05:52:44.117Z,101356.75
2018-11-26T05:55:15.109Z,101356.23
2018-11-26T05:57:44.833Z,101359.10
2018-11-26T06:00:18.294Z,101356.14
2018-11-26T06:02:47.523Z,101353.61
2018-11-26T06:05:16.647Z,101352.76
2018-11-26T06:07:45.648Z,101356.06
2018-11-26T06:10:14.747Z,101359.88
2018-11-26T06:12:43.837Z,101360.61
2018-11-26T06:15:13.952Z,101358.14
2018-11-26T06:17:44.297Z,101362.84
2018-11-26T06:20:13.925Z,101373.16
2018-11-26T06:22:45.104Z,101376.61
2018-11-26T06:25:17.262Z,101376.94
2018-11-26T06:27:46.594Z,101366.33
2018-11-26T06:30:16.931Z,101362.58
2018-11-26T06:32:45.986Z,101368.68
2018-11-26T06:35:18.841Z,101366.06
2018-11-26T06:37:48.298Z,101373.63
2018-11-26T06:40:18.094Z,101367.51
2018-11-26T06:42:47.317Z,101375.07
2018-11-26T06:45:20.486Z,101376.41
2018-11-26T06:47:50.105Z,101375.66
2018-11-26T06:50:20.420Z,101377.20
2018-11-26T06:52:49.741Z,101383.59
2018-11-26T06:55:19.884Z,101391.30
2018-11-26T06:57:48.977Z,101386.84
2018-11-26T07:00:19.333Z,101391.89
2018-11-26T07:02:48.734Z,101381.92
2018-11-26T07:05:20.607Z,101384.03
2018-11-26T07:07:49.847Z,101387.13
2018-11-26T07:10:19.889Z,101385.57
2018-11-26T07:12:49.537Z,101384.10
2018-11-26T07:15:20.190Z,101386.16
2018-11-26T07:17:49.368Z,101386.23
2018-11-26T07:20:19.441Z,101387.23
2018-11-26T07:22:48.479Z,101382.02
2018-11-26T07:25:19.281Z,101387.05
2018-11-26T07:27:50.746Z,101381.25
2018-11-26T07:30:21.109Z,101392.92
2018-11-26T07:32:50.259Z,101403.47
2018-11-26T07:35:25.923Z,101402.73
2018-11-26T07:37:55.041Z,101408.22
2018-11-26T07:40:24.169Z,101399.47
2018-11-26T07:42:57.535Z,101401.52
2018-11-26T07:45:26.559Z,101404.60
2018-11-26T07:47:55.686Z,101411.72
2018-11-26T07:50:24.902Z,101414.09
2018-11-26T07:52:53.956Z,101421.38
2018-11-26T07:55:23.346Z,101422.50
2018-11-26T07:57:52.342Z,101430.03
2018-11-26T08:00:22.242Z,101434.69
2018-11-26T08:02:51.767Z,101437.99
2018-11-26T08:05:22.697Z,101437.48
2018-11-26T08:07:51.895Z,101446.39
2018-11-26T08:10:22.942Z,101442.87
2018-11-26T08:12:53.084Z,101441.74
2018-11-26T08:15:23.209Z,101446.01
2018-11-26T08:17:52.334Z,101446.81
2018-11-26T08:20:21.528Z,101457.59
2018-11-26T08:22:50.578Z,101454.89
2018-11-26T08:25:20.855Z,101459.03
2018-11-26T08:27:50.722Z,101464.20
2018-11-26T08:30:27.913Z,101471.55
2018-11-26T08:32:59.018Z,101469.75
2018-11-26T08:35:28.987Z,101473.05
2018-11-26T08:38:03.052Z,101472.61
2018-11-26T08:40:37.240Z,101468.76
2018-11-26T08:43:07.511Z,101476.69
2018-11-26T08:45:38.471Z,101479.98
2018-11-26T08:48:13.599Z,101480.38
2018-11-26T08:50:42.804Z,101484.00
2018-11-26T08:53:33.663Z,101482.20
2018-11-26T08:56:04.123Z,101489.94
2018-11-26T08:58:36.532Z,101492.80
2018-11-26T09:01:07.263Z,101496.19
2018-11-26T09:03:36.990Z,101497.31
2018-11-26T09:06:06.379Z,101502.58
2018-11-26T09:08:36.754Z,101502.41
2018-11-26T09:11:07.016Z,101511.72
2018-11-26T09:13:36.191Z,101509.41
2018-11-26T09:16:07.104Z,101510.11
2018-11-26T09:18:36.379Z,101517.84
2018-11-26T09:21:08.367Z,101524.73
2018-11-26T09:23:37.770Z,101517.86
2018-11-26T09:26:07.605Z,101527.12
2018-11-26T09:28:37.017Z,101533.22
2018-11-26T09:31:06.787Z,101535.56
2018-11-26T09:33:36.189Z,101543.81
2018-11-26T09:36:05.862Z,101548.87
2018-11-26T09:38:34.864Z,101543.53
2018-11-26T09:41:04.283Z,101547.44
2018-11-26T09:43:33.421Z,101551.06
2018-11-26T09:46:03.252Z,101558.19
2018-11-26T09:48:32.554Z,101560.11
2018-11-26T09:51:01.870Z,101563.13
2018-11-26T09:53:31.564Z,101556.90
2018-11-26T09:56:01.541Z,101555.03
2018-11-26T09:58:30.919Z,101560.44
2018-11-26T10:01:00.215Z,101564.02
2018-11-26T10:03:29.354Z,101558.20
2018-11-26T10:05:58.492Z,101558.77
2018-11-26T10:08:27.788Z,101568.22
2018-11-26T10:10:57.138Z,101578.27
2018-11-26T10:13:26.284Z,101573.80
2018-11-26T10:15:55.505Z,101578.73
2018-11-26T10:18:24.637Z,101584.28
2018-11-26T10:20:54.577Z,101580.84
2018-11-26T10:23:24.020Z,101583.91
2018-11-26T10:25:53.182Z,101590.44
2018-11-26T10:28:23.447Z,101588.11
2018-11-26T10:30:52.586Z,101586.33
2018-11-26T10:33:22.039Z,101592.85
2018-11-26T10:35:51.317Z,101588.34
2018-11-26T10:38:20.753Z,101588.48
2018-11-26T10:40:50.144Z,101586.38
2018-11-26T10:43:19.375Z,101590.38
2018-11-26T10:45:48.653Z,101592.90
2018-11-26T10:48:17.860Z,101593.59
2018-11-26T10:50:47.110Z,101591.02
2018-11-26T10:53:16.170Z,101589.00
2018-11-26T10:55:45.205Z,101585.31
2018-11-26T10:58:14.942Z,101585.37
2018-11-26T11:00:49.571Z,101579.20
2018-11-26T11:03:19.947Z,101576.59
2018-11-26T11:05:49.084Z,101571.23
2018-11-26T11:08:18.373Z,101574.30
2018-11-26T11:10:47.639Z,101566.78
2018-11-26T11:13:17.853Z,101571.76
2018-11-26T11:15:47.112Z,101566.91
2018-11-26T11:18:16.462Z,101566.48
2018-11-26T11:20:46.025Z,101564.14
2018-11-26T11:23:15.269Z,101554.72
2018-11-26T11:25:45.399Z,101557.50
2018-11-26T11:28:15.512Z,101557.27
2018-11-26T11:30:45.172Z,101553.80
2018-11-26T11:35:42.673Z,101549.00
2018-11-26T11:38:13.053Z,101552.89
2018-11-26T11:40:42.193Z,101552.14
2018-11-26T11:43:12.617Z,101545.94
2018-11-26T11:45:41.692Z,101541.36
2018-11-26T11:48:10.927Z,101541.13
2018-11-26T11:50:40.347Z,101549.08
2018-11-26T11:53:10.126Z,101548.09
2018-11-26T11:55:39.880Z,101546.05
2018-11-26T11:58:09.327Z,101544.73
2018-11-26T12:00:41.449Z,101545.64
2018-11-26T12:03:15.044Z,101546.52
2018-11-26T12:05:44.577Z,101542.23
2018-11-26T12:08:18.144Z,101544.70
2018-11-26T12:10:47.341Z,101541.75
2018-11-26T12:13:17.010Z,101545.05
2018-11-26T12:15:47.800Z,101533.42
2018-11-26T12:18:17.142Z,101541.89
2018-11-26T12:20:46.610Z,101544.36
2018-11-26T12:23:15.962Z,101535.41
2018-11-26T12:25:50.839Z,101534.93
2018-11-26T12:28:20.308Z,101537.40
2018-11-26T12:30:50.848Z,101541.84
2018-11-26T12:33:20.285Z,101550.00
2018-11-26T12:35:49.947Z,101546.30
2018-11-26T12:38:20.399Z,101547.20
2018-11-26T12:40:50.363Z,101548.36
2018-11-26T12:43:23.368Z,101555.23
2018-11-26T12:45:52.695Z,101555.06
2018-11-26T12:48:21.867Z,101565.13
2018-11-26T12:50:52.633Z,101568.43
2018-11-26T12:53:22.337Z,101559.23
2018-11-26T12:55:52.472Z,101563.30
2018-11-26T12:58:22.607Z,101570.06
2018-11-26T13:00:51.855Z,101576.28
2018-11-26T13:03:20.948Z,101579.50
2018-11-26T13:05:54.496Z,101577.04
2018-11-26T13:08:23.639Z,101583.80
2018-11-26T13:10:54.047Z,101582.45
2018-11-26T13:13:23.188Z,101581.34
2018-11-26T13:15:53.304Z,101579.74
2018-11-26T13:18:22.398Z,101577.04
2018-11-26T13:20:51.583Z,101574.57
2018-11-26T13:23:21.097Z,101572.97
2018-11-26T13:25:51.108Z,101568.67
2018-11-26T13:28:20.519Z,101569.78
2018-11-26T13:30:50.925Z,101571.73
2018-11-26T13:33:20.696Z,101569.89
2018-11-26T13:35:53.230Z,101568.86
2018-11-26T13:38:22.455Z,101570.84
2018-11-26T13:40:51.757Z,101563.02
2018-11-26T13:43:21.525Z,101577.44
2018-11-26T13:45:50.912Z,101575.08
2018-11-26T13:48:20.502Z,101578.66
2018-11-26T13:50:53.048Z,101576.30
2018-11-26T13:53:22.500Z,101575.01
2018-11-26T13:55:53.167Z,101577.23
2018-11-26T13:58:23.911Z,101577.58
2018-11-26T14:00:53.137Z,101574.97
2018-11-26T14:03:22.918Z,101576.36
2018-11-26T14:05:52.321Z,101565.77
2018-11-26T14:08:21.769Z,101565.00
2018-11-26T14:10:51.111Z,101563.05
2018-11-26T14:13:20.428Z,101568.20
2018-11-26T14:15:50.593Z,101560.06
2018-11-26T14:18:21.370Z,101554.65
2018-11-26T14:20:51.683Z,101549.44
2018-11-26T14:23:21.014Z,101557.81
2018-11-26T14:25:50.161Z,101570.22
2018-11-26T14:28:19.694Z,101571.05
2018-11-26T14:30:48.967Z,101573.23
2018-11-26T14:33:18.596Z,101569.24
2018-11-26T14:38:38.587Z,101581.26
2018-11-26T14:41:07.860Z,101569.77
2018-11-26T14:43:37.440Z,101570.22
2018-11-26T14:46:08.467Z,101568.52
2018-11-26T14:48:38.437Z,101581.47
2018-11-26T14:51:07.672Z,101586.33
2018-11-26T14:53:36.837Z,101593.27
2018-11-26T14:56:06.754Z,101588.10
2018-11-26T14:58:36.102Z,101597.23
2018-11-26T15:01:05.406Z,101600.39
2018-11-26T15:03:34.584Z,101606.28
2018-11-26T15:06:04.398Z,101612.98
2018-11-26T15:12:20.194Z,101623.47
2018-11-26T15:14:54.118Z,101622.66
2018-11-26T15:17:25.033Z,101619.88
2018-11-26T15:19:55.157Z,101618.53
2018-11-26T15:22:25.852Z,101628.01
2018-11-26T15:24:55.440Z,101615.23
2018-11-26T15:27:25.136Z,101625.46
2018-11-26T15:29:56.976Z,101624.06
2018-11-26T15:32:27.105Z,101628.58
2018-11-26T15:34:56.301Z,101623.87
2018-11-26T15:37:25.744Z,101624.12
2018-11-26T15:39:55.369Z,101626.52
2018-11-26T15:42:24.881Z,101629.77
2018-11-26T15:44:56.122Z,101629.17
2018-11-26T15:47:26.109Z,101631.29
2018-11-26T15:49:55.177Z,101625.28
2018-11-26T15:52:24.733Z,101628.74
2018-11-26T15:54:54.030Z,101625.16
2018-11-26T15:57:24.742Z,101628.03
2018-11-26T15:59:54.611Z,101628.19
2018-11-26T16:02:24.437Z,101634.52
2018-11-26T16:29:18.798Z,101649.56
2018-11-26T16:31:48.090Z,101651.22
2018-11-26T16:34:17.475Z,101656.11
2018-11-26T16:36:46.739Z,101666.09
2018-11-26T16:39:16.041Z,101669.31
2018-11-26T16:41:45.519Z,101669.85
2018-11-26T16:44:15.144Z,101676.88
2018-11-26T16:46:44.435Z,101677.70
2018-11-26T16:49:13.620Z,101675.37
2018-11-26T16:51:42.839Z,101678.95
2018-11-26T16:54:12.195Z,101674.97
2018-11-26T16:56:41.366Z,101686.45
2018-11-26T16:59:10.633Z,101680.25
2018-11-26T17:01:40.858Z,101672.97
2018-11-26T17:04:10.479Z,101674.67
2018-11-26T17:06:39.927Z,101678.52
2018-11-26T17:09:10.552Z,101677.85
2018-11-26T17:11:40.067Z,101680.16
2018-11-26T17:14:09.206Z,101690.02
2018-11-26T17:16:38.396Z,101688.80
2018-11-26T17:19:08.830Z,101692.69
2018-11-26T17:21:37.908Z,101699.88
2018-11-26T17:24:07.190Z,101702.47
2018-11-26T17:26:36.428Z,101698.36
2018-11-26T17:29:06.023Z,101701.47
2018-11-26T17:31:35.156Z,101707.65
2018-11-26T17:34:04.304Z,101707.08
2018-11-26T17:36:33.495Z,101710.02
2018-11-26T17:39:02.669Z,101711.92
2018-11-26T17:41:32.476Z,101714.66
2018-11-26T17:44:01.880Z,101712.81
2018-11-26T17:46:32.718Z,101713.88
2018-11-26T17:49:02.149Z,101717.66
2018-11-26T17:51:31.246Z,101710.20
2018-11-26T17:54:00.291Z,101706.80
2018-11-26T17:56:29.422Z,101706.91
2018-11-26T17:58:58.543Z,101712.73
2018-11-26T18:01:35.646Z,101713.98
2018-11-26T18:04:04.791Z,101711.17
2018-11-26T18:06:34.335Z,101710.77
2018-11-26T18:09:03.776Z,101710.91
2018-11-26T18:11:33.905Z,101706.65
2018-11-26T18:14:03.067Z,101708.53
2018-11-26T18:16:32.185Z,101698.91
2018-11-26T18:19:01.417Z,101703.17
2018-11-26T18:21:30.519Z,101695.82
2018-11-26T18:24:00.046Z,101687.52
2018-11-26T18:26:30.091Z,101686.50
2018-11-26T18:28:59.257Z,101683.48
2018-11-26T18:31:28.380Z,101683.81
2018-11-26T18:33:57.532Z,101680.58
2018-11-26T18:36:26.743Z,101686.80
2018-11-26T18:38:56.083Z,101690.84
2018-11-26T18:41:28.471Z,101695.39
2018-11-26T18:43:57.675Z,101696.44
2018-11-26T18:46:26.896Z,101698.30
2018-11-26T18:48:56.302Z,101709.39
2018-11-26T18:51:26.534Z,101707.42
2018-11-26T18:53:55.940Z,101719.65
2018-11-26T18:56:25.919Z,101726.19
2018-11-26T18:58:55.014Z,101733.73
2018-11-26T19:01:24.136Z,101744.39
2018-11-26T19:03:53.276Z,101753.11
2018-11-26T19:06:22.522Z,101747.20
2018-11-26T19:08:51.706Z,101744.42
2018-11-26T19:11:20.849Z,101749.69
2018-11-26T19:13:54.944Z,101748.77
2018-11-26T19:16:26.069Z,101744.10
2018-11-26T19:18:55.185Z,101750.53
2018-11-26T19:21:24.487Z,101747.52
2018-11-26T19:23:53.710Z,101746.89
2018-11-26T19:26:23.484Z,101741.72
2018-11-26T19:28:52.558Z,101735.71
2018-11-26T19:31:21.692Z,101741.30
2018-11-26T19:33:50.760Z,101745.55
2018-11-26T19:36:19.850Z,101747.61
2018-11-26T19:38:48.946Z,101752.37
2018-11-26T19:41:18.039Z,101754.77
2018-11-26T19:43:47.059Z,101762.71
2018-11-26T19:46:16.140Z,101753.17
2018-11-26T19:48:45.539Z,101760.83
2018-11-26T19:51:15.250Z,101762.47
2018-11-26T19:53:44.280Z,101771.17
2018-11-26T19:56:13.313Z,101765.25
2018-11-26T19:58:42.364Z,101758.64
2018-11-26T20:01:11.534Z,101758.64
2018-11-26T20:03:45.889Z,101759.66
2018-11-26T20:06:20.443Z,101757.69
2018-11-26T20:08:54.766Z,101758.19
2018-11-26T20:11:23.859Z,101756.05
2018-11-26T20:13:52.951Z,101750.96
2018-11-26T20:16:26.874Z,101750.25
2018-11-26T20:18:56.058Z,101752.34
2018-11-26T20:21:25.333Z,101751.38
2018-11-26T20:24:01.848Z,101745.87
2018-11-26T20:26:31.083Z,101743.90
2018-11-26T20:29:00.230Z,101750.20
2018-11-26T20:31:29.326Z,101757.12
2018-11-26T20:33:58.545Z,101755.70
2018-11-26T20:36:27.617Z,101754.87
2018-11-26T20:38:56.693Z,101751.26
2018-11-26T20:41:25.813Z,101757.89
2018-11-26T20:43:54.891Z,101755.58
2018-11-26T20:46:23.975Z,101742.56
2018-11-26T20:48:53.379Z,101738.77
2018-11-26T20:51:22.458Z,101739.70
2018-11-26T20:53:51.489Z,101741.97
2018-11-26T20:56:21.419Z,101740.83
2018-11-26T20:58:56.054Z,101733.19
2018-11-26T21:01:25.158Z,101735.25
2018-11-26T21:03:54.356Z,101731.42
2018-11-26T21:06:23.927Z,101745.70
2018-11-26T21:08:53.289Z,101743.23
2018-11-26T21:11:22.376Z,101739.52
2018-11-26T21:13:51.529Z,101741.58
2018-11-26T21:16:20.688Z,101736.41
2018-11-26T21:18:50.674Z,101742.30
2018-11-26T21:21:19.835Z,101744.78
2018-11-26T21:23:49.069Z,101739.52
2018-11-26T21:26:18.165Z,101743.14
2018-11-26T21:28:47.369Z,101745.31
2018-11-26T21:31:16.470Z,101742.95
2018-11-26T21:33:45.589Z,101735.41
2018-11-26T21:36:14.738Z,101723.80
2018-11-26T21:38:44.127Z,101723.91
2018-11-26T21:41:13.386Z,101713.45
2018-11-26T21:43:42.586Z,101716.23
2018-11-26T21:46:12.165Z,101734.88
2018-11-26T21:48:41.572Z,101737.05
2018-11-26T21:51:10.693Z,101734.12
2018-11-26T21:53:39.896Z,101736.41
2018-11-26T21:56:09.101Z,101737.00
2018-11-26T21:58:39.528Z,101738.27
2018-11-26T22:01:10.309Z,101736.30
2018-11-26T22:03:39.442Z,101736.01
2018-11-26T22:06:08.670Z,101739.94
2018-11-26T22:08:37.993Z,101748.02
2018-11-26T22:11:07.253Z,101747.91
2018-11-26T22:13:36.569Z,101749.34
2018-11-26T22:16:06.024Z,101751.09
2018-11-26T22:18:35.207Z,101740.64
2018-11-26T22:21:04.636Z,101733.19
2018-11-26T22:23:33.982Z,101724.89
2018-11-26T22:26:03.258Z,101717.94
2018-11-26T22:28:32.457Z,101722.89
2018-11-26T22:31:01.927Z,101721.14
2018-11-26T22:33:31.058Z,101705.28
2018-11-26T22:36:00.987Z,101702.15
2018-11-26T22:38:30.182Z,101705.24
2018-11-26T22:40:59.259Z,101699.13
2018-11-26T22:43:28.595Z,101695.19
2018-11-26T22:45:57.669Z,101695.30
2018-11-26T22:48:26.780Z,101698.91
2018-11-26T22:50:55.923Z,101695.48
2018-11-26T22:53:24.993Z,101687.69
2018-11-26T22:55:54.205Z,101684.48
2018-11-26T22:58:23.209Z,101690.16
2018-11-26T23:00:54.638Z,101682.91
2018-11-26T23:03:25.923Z,101683.24
2018-11-26T23:05:55.080Z,101680.33
2018-11-26T23:08:24.179Z,101676.28
2018-11-26T23:10:53.271Z,101674.39
2018-11-26T23:13:22.317Z,101670.34
2018-11-26T23:15:51.438Z,101671.19
2018-11-26T23:18:21.483Z,101665.06
2018-11-26T23:20:50.708Z,101670.74
2018-11-26T23:23:19.795Z,101670.02
2018-11-26T23:25:48.864Z,101659.02
2018-11-26T23:28:37.884Z,101664.21
2018-11-26T23:31:25.799Z,101658.09
2018-11-26T23:34:12.383Z,101655.25
2018-11-26T23:36:59.409Z,101652.66
2018-11-26T23:39:28.686Z,101635.74
2018-11-26T23:42:13.329Z,101623.68
2018-11-26T23:44:57.300Z,101628.12
2018-11-26T23:47:43.231Z,101631.42
2018-11-26T23:50:29.971Z,101621.48
2018-11-26T23:53:15.540Z,101614.22
2018-11-26T23:56:01.711Z,101619.61
2018-11-26T23:58:50.318Z,101616.70
